RYR21YH EDDH-EPGD
Flight info
| Callsign | RYR21YH |
|---|---|
| Flight time | N/A |
| Altitude | 31000 |
| Route | LUGEG3G LUGEG P605 MEGAR DCT KOSEB DCT RUMAR L983 DOMAG T240 OGDAV OGDAV5T |
| Aircraft | B738/M-SDE2E3FGHIRWXY/LB1 |
Departure
| Time | 2026-04-23 16:20 |
|---|---|
| Airport | Hamburg Helmut Schmidt Airport (EDDH) |
Arrival
| Time | N/A |
|---|---|
| Airport | Gdańsk Lech Wałęsa Airport (EPGD) |
| Time | Latitude | Longitude | Altitude | Speed | Heading |
|---|---|---|---|---|---|
| 2026-04-23 15:46 | 53.62762 | 9.99389 | 48 ft | 0 kts | 244° |
| 2026-04-23 15:57 | 53.62762 | 9.99390 | 49 ft | 0 kts | 244° |
| 2026-04-23 16:11 | 53.62769 | 9.99412 | 49 ft | 4 kts | 244° |
| 2026-04-23 16:11 | 53.62780 | 9.99452 | 49 ft | 4 kts | 244° |
| 2026-04-23 16:11 | 53.62794 | 9.99485 | 49 ft | 4 kts | 200° |
| 2026-04-23 16:11 | 53.62812 | 9.99483 | 49 ft | 2 kts | 152° |
| 2026-04-23 16:12 | 53.62822 | 9.99474 | 49 ft | 0 kts | 152° |
| 2026-04-23 16:16 | 53.62821 | 9.99474 | 49 ft | 1 kts | 152° |
| 2026-04-23 16:16 | 53.62809 | 9.99485 | 45 ft | 3 kts | 153° |
| 2026-04-23 16:17 | 53.62779 | 9.99511 | 46 ft | 6 kts | 153° |
| 2026-04-23 16:17 | 53.62733 | 9.99550 | 49 ft | 8 kts | 150° |
| 2026-04-23 16:17 | 53.62677 | 9.99601 | 48 ft | 10 kts | 151° |
| 2026-04-23 16:17 | 53.62633 | 9.99692 | 49 ft | 10 kts | 96° |
| 2026-04-23 16:18 | 53.62652 | 9.99806 | 48 ft | 10 kts | 55° |
| 2026-04-23 16:18 | 53.62711 | 9.99862 | 48 ft | 10 kts | 2° |
| 2026-04-23 16:18 | 53.62774 | 9.99819 | 48 ft | 10 kts | 332° |
| 2026-04-23 16:18 | 53.62836 | 9.99771 | 47 ft | 10 kts | 335° |
| 2026-04-23 16:19 | 53.62895 | 9.99721 | 48 ft | 10 kts | 332° |
| 2026-04-23 16:19 | 53.63093 | 9.99549 | 49 ft | 65 kts | 333° |
| 2026-04-23 16:19 | 53.63697 | 9.99028 | 48 ft | 127 kts | 333° |
| 2026-04-23 16:19 | 53.64634 | 9.98233 | 191 ft | 165 kts | 330° |
| 2026-04-23 16:20 | 53.65683 | 9.97461 | 960 ft | 163 kts | 334° |
| 2026-04-23 16:20 | 53.66723 | 9.96769 | 1808 ft | 161 kts | 337° |
| 2026-04-23 16:20 | 53.67763 | 9.96024 | 2511 ft | 164 kts | 333° |
| 2026-04-23 16:20 | 53.68762 | 9.95221 | 3351 ft | 156 kts | 333° |
| 2026-04-23 16:21 | 53.69877 | 9.94737 | 3713 ft | 181 kts | 359° |
| 2026-04-23 16:21 | 53.71185 | 9.94777 | 4047 ft | 198 kts | 358° |
| 2026-04-23 16:21 | 53.72591 | 9.94786 | 4512 ft | 206 kts | 7° |
| 2026-04-23 16:21 | 53.73870 | 9.95993 | 4907 ft | 230 kts | 46° |
| 2026-04-23 16:22 | 53.74725 | 9.98480 | 5165 ft | 257 kts | 60° |
| 2026-04-23 16:22 | 53.75510 | 10.01266 | 5765 ft | 267 kts | 61° |
| 2026-04-23 16:22 | 53.76300 | 10.04115 | 6561 ft | 268 kts | 60° |
| 2026-04-23 16:22 | 53.77102 | 10.06990 | 7289 ft | 271 kts | 60° |
| 2026-04-23 16:23 | 53.77916 | 10.09886 | 8014 ft | 274 kts | 60° |
| 2026-04-23 16:23 | 53.78743 | 10.12806 | 8751 ft | 277 kts | 60° |
| 2026-04-23 16:23 | 53.79582 | 10.15755 | 9463 ft | 281 kts | 60° |
| 2026-04-23 16:23 | 53.80436 | 10.18748 | 10201 ft | 283 kts | 60° |
| 2026-04-23 16:24 | 53.81304 | 10.21784 | 10667 ft | 295 kts | 60° |
| 2026-04-23 16:24 | 53.82235 | 10.25030 | 10830 ft | 318 kts | 60° |
| 2026-04-23 16:24 | 53.83216 | 10.28453 | 10979 ft | 338 kts | 61° |
| 2026-04-23 16:24 | 53.84284 | 10.32197 | 11126 ft | 358 kts | 61° |
| 2026-04-23 16:25 | 53.85372 | 10.36021 | 11429 ft | 370 kts | 61° |
| 2026-04-23 16:25 | 53.86496 | 10.39981 | 12046 ft | 373 kts | 62° |
| 2026-04-23 16:25 | 53.87621 | 10.43947 | 12708 ft | 376 kts | 62° |
| 2026-04-23 16:25 | 53.88759 | 10.47961 | 13345 ft | 379 kts | 62° |
| 2026-04-23 16:26 | 53.89906 | 10.52011 | 13993 ft | 382 kts | 62° |
| 2026-04-23 16:26 | 53.91060 | 10.56078 | 14780 ft | 381 kts | 63° |
| 2026-04-23 16:26 | 53.92209 | 10.60129 | 15548 ft | 381 kts | 63° |
| 2026-04-23 16:26 | 53.93361 | 10.64197 | 16154 ft | 385 kts | 63° |
| 2026-04-23 16:27 | 53.94710 | 10.68140 | 16703 ft | 389 kts | 51° |
| 2026-04-23 16:27 | 53.96546 | 10.71544 | 17330 ft | 391 kts | 46° |
| 2026-04-23 16:27 | 53.98441 | 10.74886 | 17939 ft | 395 kts | 46° |
| 2026-04-23 16:27 | 54.00352 | 10.78272 | 18500 ft | 399 kts | 46° |
| 2026-04-23 16:28 | 54.02267 | 10.81708 | 18993 ft | 402 kts | 47° |
| 2026-04-23 16:28 | 54.04193 | 10.85200 | 19480 ft | 406 kts | 47° |
| 2026-04-23 16:28 | 54.06126 | 10.88729 | 19955 ft | 409 kts | 47° |
| 2026-04-23 16:28 | 54.08069 | 10.92288 | 20415 ft | 412 kts | 47° |
| 2026-04-23 16:29 | 54.10006 | 10.95844 | 20881 ft | 416 kts | 47° |
| 2026-04-23 16:29 | 54.12003 | 10.99516 | 21327 ft | 419 kts | 48° |
| 2026-04-23 16:29 | 54.13966 | 11.03137 | 21762 ft | 423 kts | 48° |
| 2026-04-23 16:29 | 54.15969 | 11.06836 | 22200 ft | 426 kts | 48° |
| 2026-04-23 16:30 | 54.17987 | 11.10567 | 22616 ft | 429 kts | 48° |
| 2026-04-23 16:30 | 54.20020 | 11.14332 | 23031 ft | 433 kts | 48° |
| 2026-04-23 16:30 | 54.22060 | 11.18127 | 23436 ft | 436 kts | 49° |
| 2026-04-23 16:30 | 54.24110 | 11.21972 | 23829 ft | 439 kts | 49° |
| 2026-04-23 16:31 | 54.26169 | 11.25848 | 24196 ft | 440 kts | 49° |
| 2026-04-23 16:31 | 54.28227 | 11.29727 | 24647 ft | 440 kts | 50° |
| 2026-04-23 16:31 | 54.30288 | 11.33613 | 25103 ft | 439 kts | 50° |
| 2026-04-23 16:31 | 54.32340 | 11.37484 | 25514 ft | 439 kts | 50° |
| 2026-04-23 16:32 | 54.34391 | 11.41356 | 25898 ft | 439 kts | 51° |
| 2026-04-23 16:32 | 54.36441 | 11.45238 | 26267 ft | 440 kts | 51° |
| 2026-04-23 16:32 | 54.38473 | 11.49080 | 26629 ft | 440 kts | 51° |
| 2026-04-23 16:32 | 54.40536 | 11.52969 | 27005 ft | 440 kts | 51° |
| 2026-04-23 16:33 | 54.42598 | 11.56853 | 27469 ft | 438 kts | 52° |
| 2026-04-23 16:33 | 54.44637 | 11.60704 | 28100 ft | 432 kts | 52° |
| 2026-04-23 16:33 | 54.46591 | 11.64559 | 28780 ft | 422 kts | 57° |
| 2026-04-23 16:33 | 54.48197 | 11.68699 | 29429 ft | 412 kts | 64° |
| 2026-04-23 16:34 | 54.49603 | 11.72967 | 30045 ft | 406 kts | 65° |
| 2026-04-23 16:34 | 54.50982 | 11.77185 | 30530 ft | 403 kts | 65° |
| 2026-04-23 16:34 | 54.52355 | 11.81383 | 30885 ft | 402 kts | 65° |
| 2026-04-23 16:34 | 54.53732 | 11.85575 | 31163 ft | 402 kts | 65° |
| 2026-04-23 16:35 | 54.56513 | 11.94015 | 31166 ft | 405 kts | 65° |
| 2026-04-23 16:35 | 54.59292 | 12.02424 | 31162 ft | 402 kts | 65° |
| 2026-04-23 16:36 | 54.62029 | 12.10734 | 31164 ft | 400 kts | 65° |
| 2026-04-23 16:36 | 54.64771 | 12.19091 | 31164 ft | 400 kts | 65° |
| 2026-04-23 16:37 | 54.67504 | 12.27449 | 31158 ft | 400 kts | 65° |
| 2026-04-23 16:37 | 54.70235 | 12.35827 | 31156 ft | 400 kts | 65° |
| 2026-04-23 16:38 | 54.72966 | 12.44231 | 31155 ft | 401 kts | 64° |
| 2026-04-23 16:38 | 54.75697 | 12.52668 | 31150 ft | 403 kts | 64° |
| 2026-04-23 16:39 | 54.77970 | 12.61469 | 31160 ft | 399 kts | 75° |
| 2026-04-23 16:39 | 54.79016 | 12.70900 | 31156 ft | 399 kts | 82° |
| 2026-04-23 16:40 | 54.79805 | 12.80429 | 31149 ft | 400 kts | 82° |
| 2026-04-23 16:40 | 54.80604 | 12.89995 | 31149 ft | 401 kts | 82° |
| 2026-04-23 16:41 | 54.81410 | 12.99564 | 31150 ft | 402 kts | 82° |
| 2026-04-23 16:41 | 54.82215 | 13.09149 | 31146 ft | 402 kts | 82° |
| 2026-04-23 16:42 | 54.83010 | 13.18688 | 31146 ft | 402 kts | 82° |
| 2026-04-23 16:42 | 54.83804 | 13.28312 | 31143 ft | 403 kts | 82° |
| 2026-04-23 16:43 | 54.84590 | 13.37936 | 31142 ft | 403 kts | 82° |
| 2026-04-23 16:43 | 54.85368 | 13.47556 | 31139 ft | 403 kts | 82° |
| 2026-04-23 16:44 | 54.86139 | 13.57190 | 31134 ft | 403 kts | 82° |
| 2026-04-23 16:44 | 54.86901 | 13.66822 | 31134 ft | 403 kts | 82° |
| 2026-04-23 16:45 | 54.87657 | 13.76466 | 31131 ft | 403 kts | 82° |
| 2026-04-23 16:45 | 54.88410 | 13.86060 | 31132 ft | 403 kts | 82° |
| 2026-04-23 16:46 | 54.89157 | 13.95717 | 31122 ft | 403 kts | 82° |
| 2026-04-23 16:46 | 54.89889 | 14.05375 | 31120 ft | 404 kts | 82° |
| 2026-04-23 16:47 | 54.90616 | 14.15063 | 31118 ft | 404 kts | 82° |
| 2026-04-23 16:47 | 54.91336 | 14.24773 | 31111 ft | 405 kts | 82° |
| 2026-04-23 16:48 | 54.92049 | 14.34484 | 31111 ft | 405 kts | 82° |
| 2026-04-23 16:48 | 54.92752 | 14.44151 | 31104 ft | 406 kts | 82° |
| 2026-04-23 16:49 | 54.93451 | 14.53895 | 31105 ft | 406 kts | 82° |
| 2026-04-23 16:49 | 54.94145 | 14.63667 | 31103 ft | 407 kts | 82° |
| 2026-04-23 16:50 | 54.94831 | 14.73445 | 31102 ft | 407 kts | 82° |
| 2026-04-23 16:50 | 54.95509 | 14.83230 | 31102 ft | 408 kts | 82° |
| 2026-04-23 16:51 | 54.96180 | 14.93028 | 31104 ft | 408 kts | 82° |
| 2026-04-23 16:51 | 54.96839 | 15.02769 | 31101 ft | 408 kts | 82° |
| 2026-04-23 16:52 | 54.97496 | 15.12593 | 31102 ft | 408 kts | 82° |
| 2026-04-23 16:52 | 54.98145 | 15.22426 | 31099 ft | 409 kts | 82° |
| 2026-04-23 16:53 | 54.98786 | 15.32265 | 31099 ft | 409 kts | 82° |
| 2026-04-23 16:53 | 54.99420 | 15.42106 | 31096 ft | 409 kts | 82° |
| 2026-04-23 16:54 | 55.00046 | 15.51957 | 31099 ft | 409 kts | 82° |
| 2026-04-23 16:54 | 55.00663 | 15.61808 | 31095 ft | 409 kts | 82° |
| 2026-04-23 16:55 | 55.01273 | 15.71665 | 31094 ft | 409 kts | 82° |
| 2026-04-23 16:55 | 55.01876 | 15.81527 | 31103 ft | 409 kts | 82° |
| 2026-04-23 16:56 | 55.02467 | 15.91332 | 31100 ft | 410 kts | 82° |
| 2026-04-23 16:56 | 55.03055 | 16.01212 | 31096 ft | 410 kts | 82° |
| 2026-04-23 16:57 | 55.03323 | 16.11160 | 31094 ft | 414 kts | 90° |
| 2026-04-23 16:57 | 55.02922 | 16.21166 | 31088 ft | 414 kts | 90° |
| 2026-04-23 16:58 | 55.02562 | 16.31201 | 31094 ft | 414 kts | 90° |
| 2026-04-23 16:58 | 55.02287 | 16.39531 | 31096 ft | 415 kts | 89° |
| 2026-04-23 16:59 | 55.01906 | 16.51216 | 31105 ft | 415 kts | 90° |
| 2026-04-23 16:59 | 55.01567 | 16.61264 | 31083 ft | 416 kts | 89° |
| 2026-04-23 17:00 | 55.01452 | 16.64603 | 30865 ft | 419 kts | 89° |
| 2026-04-23 17:00 | 55.01276 | 16.69699 | 30294 ft | 421 kts | 90° |
| 2026-04-23 17:00 | 55.01096 | 16.74780 | 29557 ft | 419 kts | 90° |
| 2026-04-23 17:00 | 55.00915 | 16.79825 | 28812 ft | 417 kts | 90° |
| 2026-04-23 17:01 | 55.00732 | 16.84856 | 28098 ft | 415 kts | 90° |
| 2026-04-23 17:01 | 55.00549 | 16.89859 | 27430 ft | 413 kts | 90° |
| 2026-04-23 17:01 | 55.00364 | 16.94817 | 26924 ft | 408 kts | 90° |
| 2026-04-23 17:01 | 55.00180 | 16.99726 | 26416 ft | 403 kts | 90° |
| 2026-04-23 17:02 | 54.99996 | 17.04587 | 25890 ft | 402 kts | 90° |
| 2026-04-23 17:02 | 54.99811 | 17.09502 | 25364 ft | 415 kts | 90° |
| 2026-04-23 17:02 | 54.99618 | 17.14616 | 24805 ft | 428 kts | 90° |
| 2026-04-23 17:02 | 54.99416 | 17.19767 | 24231 ft | 424 kts | 91° |
| 2026-04-23 17:03 | 54.99215 | 17.24810 | 23685 ft | 420 kts | 91° |
| 2026-04-23 17:03 | 54.99012 | 17.29864 | 23052 ft | 416 kts | 90° |
| 2026-04-23 17:03 | 54.98810 | 17.34851 | 22518 ft | 410 kts | 90° |
| 2026-04-23 17:03 | 54.98608 | 17.39786 | 21980 ft | 406 kts | 90° |
| 2026-04-23 17:04 | 54.98409 | 17.44651 | 21444 ft | 401 kts | 90° |
| 2026-04-23 17:04 | 54.98210 | 17.49475 | 20929 ft | 398 kts | 90° |
| 2026-04-23 17:04 | 54.98011 | 17.54260 | 20386 ft | 396 kts | 90° |
| 2026-04-23 17:04 | 54.97810 | 17.59029 | 19878 ft | 394 kts | 90° |
| 2026-04-23 17:05 | 54.97560 | 17.63797 | 19352 ft | 397 kts | 95° |
| 2026-04-23 17:05 | 54.96742 | 17.68470 | 18871 ft | 415 kts | 111° |
| 2026-04-23 17:05 | 54.95222 | 17.72826 | 18526 ft | 427 kts | 126° |
| 2026-04-23 17:05 | 54.93245 | 17.76600 | 17961 ft | 428 kts | 131° |
| 2026-04-23 17:06 | 54.91172 | 17.80219 | 17763 ft | 414 kts | 132° |
| 2026-04-23 17:06 | 54.89158 | 17.83710 | 17554 ft | 402 kts | 131° |
| 2026-04-23 17:06 | 54.87221 | 17.87123 | 17362 ft | 391 kts | 131° |
| 2026-04-23 17:06 | 54.85359 | 17.90460 | 17188 ft | 380 kts | 130° |
| 2026-04-23 17:07 | 54.83550 | 17.93731 | 17023 ft | 370 kts | 130° |
| 2026-04-23 17:07 | 54.81788 | 17.96917 | 16852 ft | 361 kts | 130° |
| 2026-04-23 17:07 | 54.80060 | 18.00006 | 16679 ft | 354 kts | 133° |
| 2026-04-23 17:07 | 54.78173 | 18.02760 | 16322 ft | 354 kts | 140° |
| 2026-04-23 17:08 | 54.76191 | 18.05268 | 16003 ft | 352 kts | 141° |
| 2026-04-23 17:08 | 54.74209 | 18.07723 | 15686 ft | 349 kts | 141° |
| 2026-04-23 17:08 | 54.72251 | 18.10200 | 15369 ft | 347 kts | 140° |
| 2026-04-23 17:08 | 54.70324 | 18.12687 | 15054 ft | 344 kts | 140° |
| 2026-04-23 17:09 | 54.68435 | 18.15140 | 14747 ft | 343 kts | 140° |
| 2026-04-23 17:09 | 54.66582 | 18.17775 | 14470 ft | 337 kts | 132° |
| 2026-04-23 17:09 | 54.65044 | 18.20540 | 13694 ft | 299 kts | 129° |
| 2026-04-23 17:09 | 54.63410 | 18.23675 | 8228 ft | 440 kts | 128° |
| 2026-04-23 17:10 | 54.61479 | 18.27736 | 8125 ft | 404 kts | 125° |
| 2026-04-23 17:10 | 54.60074 | 18.31206 | 3100 ft | 342 kts | 86° |